sensor_id;sensor_type;location;lat;lon;timestamp;temperature;humidity
46309;DHT22;32037;50.820;6.494;2022-09-01T00:01:49;24.40;47.20
46309;DHT22;32037;50.820;6.494;2022-09-01T00:04:20;24.40;47.10
46309;DHT22;32037;50.820;6.494;2022-09-01T00:06:49;24.40;47.00
46309;DHT22;32037;50.820;6.494;2022-09-01T00:09:19;24.40;47.10
46309;DHT22;32037;50.820;6.494;2022-09-01T00:11:50;24.40;47.20
46309;DHT22;32037;50.820;6.494;2022-09-01T00:14:20;24.40;47.20
46309;DHT22;32037;50.820;6.494;2022-09-01T00:16:59;24.40;47.20
46309;DHT22;32037;50.820;6.494;2022-09-01T00:19:28;24.30;47.10
46309;DHT22;32037;50.820;6.494;2022-09-01T00:21:57;24.40;47.20
46309;DHT22;32037;50.820;6.494;2022-09-01T00:24:26;24.40;47.20
46309;DHT22;32037;50.820;6.494;2022-09-01T00:26:56;24.30;47.20
46309;DHT22;32037;50.820;6.494;2022-09-01T00:29:25;24.40;47.20
46309;DHT22;32037;50.820;6.494;2022-09-01T00:31:53;24.30;47.00
46309;DHT22;32037;50.820;6.494;2022-09-01T00:34:23;24.30;46.90
46309;DHT22;32037;50.820;6.494;2022-09-01T00:36:51;24.30;47.00
46309;DHT22;32037;50.820;6.494;2022-09-01T00:39:20;24.40;47.10
46309;DHT22;32037;50.820;6.494;2022-09-01T00:41:50;24.30;47.00
46309;DHT22;32037;50.820;6.494;2022-09-01T00:44:20;24.30;47.00
46309;DHT22;32037;50.820;6.494;2022-09-01T00:46:51;24.30;47.00
46309;DHT22;32037;50.820;6.494;2022-09-01T00:49:27;24.30;47.10
46309;DHT22;32037;50.820;6.494;2022-09-01T00:52:04;24.30;47.00
46309;DHT22;32037;50.820;6.494;2022-09-01T00:54:36;24.30;47.10
46309;DHT22;32037;50.820;6.494;2022-09-01T00:57:08;24.30;47.80
46309;DHT22;32037;50.820;6.494;2022-09-01T00:59:39;24.30;47.10
46309;DHT22;32037;50.820;6.494;2022-09-01T01:02:08;24.30;47.20
46309;DHT22;32037;50.820;6.494;2022-09-01T01:04:38;24.30;47.20
46309;DHT22;32037;50.820;6.494;2022-09-01T01:07:10;24.30;47.20
46309;DHT22;32037;50.820;6.494;2022-09-01T01:09:41;24.30;47.10
46309;DHT22;32037;50.820;6.494;2022-09-01T01:12:11;24.30;47.20
46309;DHT22;32037;50.820;6.494;2022-09-01T01:14:45;24.30;47.20
46309;DHT22;32037;50.820;6.494;2022-09-01T01:17:17;24.30;47.10
46309;DHT22;32037;50.820;6.494;2022-09-01T01:19:52;24.30;47.10
46309;DHT22;32037;50.820;6.494;2022-09-01T01:22:44;24.30;47.10
46309;DHT22;32037;50.820;6.494;2022-09-01T01:25:39;24.30;47.10
46309;DHT22;32037;50.820;6.494;2022-09-01T01:28:12;24.30;47.10
46309;DHT22;32037;50.820;6.494;2022-09-01T01:30:44;24.30;47.20
46309;DHT22;32037;50.820;6.494;2022-09-01T01:33:19;24.30;47.20
46309;DHT22;32037;50.820;6.494;2022-09-01T01:35:51;24.30;47.30
46309;DHT22;32037;50.820;6.494;2022-09-01T01:38:24;24.30;47.20
46309;DHT22;32037;50.820;6.494;2022-09-01T01:40:55;24.30;47.10
46309;DHT22;32037;50.820;6.494;2022-09-01T01:43:24;24.30;47.20
46309;DHT22;32037;50.820;6.494;2022-09-01T01:45:56;24.20;46.90
46309;DHT22;32037;50.820;6.494;2022-09-01T01:48:35;24.20;46.80
46309;DHT22;32037;50.820;6.494;2022-09-01T01:51:06;24.20;46.80
46309;DHT22;32037;50.820;6.494;2022-09-01T01:53:34;24.20;46.90
46309;DHT22;32037;50.820;6.494;2022-09-01T01:56:05;24.20;47.00
46309;DHT22;32037;50.820;6.494;2022-09-01T01:58:35;24.20;46.90
46309;DHT22;32037;50.820;6.494;2022-09-01T02:01:10;24.20;46.90
46309;DHT22;32037;50.820;6.494;2022-09-01T02:03:39;24.20;46.80
46309;DHT22;32037;50.820;6.494;2022-09-01T02:06:09;24.20;46.90
46309;DHT22;32037;50.820;6.494;2022-09-01T02:08:39;24.20;48.10
46309;DHT22;32037;50.820;6.494;2022-09-01T02:11:09;24.20;46.90
46309;DHT22;32037;50.820;6.494;2022-09-01T02:13:39;24.20;46.90
46309;DHT22;32037;50.820;6.494;2022-09-01T02:16:08;24.20;46.80
46309;DHT22;32037;50.820;6.494;2022-09-01T02:18:41;24.20;46.80
46309;DHT22;32037;50.820;6.494;2022-09-01T02:21:16;24.20;46.90
46309;DHT22;32037;50.820;6.494;2022-09-01T02:23:47;24.20;46.90
46309;DHT22;32037;50.820;6.494;2022-09-01T02:26:17;24.20;47.00
46309;DHT22;32037;50.820;6.494;2022-09-01T02:28:49;24.20;46.90
46309;DHT22;32037;50.820;6.494;2022-09-01T02:31:25;24.20;47.10
46309;DHT22;32037;50.820;6.494;2022-09-01T02:33:57;24.10;46.80
46309;DHT22;32037;50.820;6.494;2022-09-01T02:36:27;24.10;46.80
46309;DHT22;32037;50.820;6.494;2022-09-01T02:38:59;24.10;46.70
46309;DHT22;32037;50.820;6.494;2022-09-01T02:41:29;24.10;46.70
46309;DHT22;32037;50.820;6.494;2022-09-01T02:44:01;24.10;46.90
46309;DHT22;32037;50.820;6.494;2022-09-01T02:46:30;24.10;47.00
46309;DHT22;32037;50.820;6.494;2022-09-01T02:48:58;24.10;46.80
46309;DHT22;32037;50.820;6.494;2022-09-01T02:51:28;24.10;46.80
46309;DHT22;32037;50.820;6.494;2022-09-01T02:53:58;24.10;46.80
46309;DHT22;32037;50.820;6.494;2022-09-01T02:56:28;24.10;46.90
46309;DHT22;32037;50.820;6.494;2022-09-01T02:58:57;24.10;46.70
46309;DHT22;32037;50.820;6.494;2022-09-01T03:01:28;24.10;46.70
46309;DHT22;32037;50.820;6.494;2022-09-01T03:04:00;24.10;47.00
46309;DHT22;32037;50.820;6.494;2022-09-01T03:06:29;24.10;46.90
46309;DHT22;32037;50.820;6.494;2022-09-01T03:09:01;24.10;46.90
46309;DHT22;32037;50.820;6.494;2022-09-01T03:11:33;24.10;46.90
46309;DHT22;32037;50.820;6.494;2022-09-01T03:14:02;24.10;46.90
46309;DHT22;32037;50.820;6.494;2022-09-01T03:16:31;24.10;46.90
46309;DHT22;32037;50.820;6.494;2022-09-01T03:19:00;24.10;46.90
46309;DHT22;32037;50.820;6.494;2022-09-01T03:21:30;24.10;46.80
46309;DHT22;32037;50.820;6.494;2022-09-01T03:23:58;24.00;46.70
46309;DHT22;32037;50.820;6.494;2022-09-01T03:26:31;24.00;46.70
46309;DHT22;32037;50.820;6.494;2022-09-01T03:29:00;24.00;46.60
46309;DHT22;32037;50.820;6.494;2022-09-01T03:31:29;24.00;46.70
46309;DHT22;32037;50.820;6.494;2022-09-01T03:34:00;24.00;46.60
46309;DHT22;32037;50.820;6.494;2022-09-01T03:36:33;24.00;46.70
46309;DHT22;32037;50.820;6.494;2022-09-01T03:39:02;24.00;46.70
46309;DHT22;32037;50.820;6.494;2022-09-01T03:41:32;24.00;46.60
46309;DHT22;32037;50.820;6.494;2022-09-01T03:44:04;24.00;46.70
46309;DHT22;32037;50.820;6.494;2022-09-01T03:46:32;24.00;46.70
46309;DHT22;32037;50.820;6.494;2022-09-01T03:49:04;24.00;46.50
46309;DHT22;32037;50.820;6.494;2022-09-01T03:51:36;24.00;46.50
46309;DHT22;32037;50.820;6.494;2022-09-01T03:54:07;24.00;46.60
46309;DHT22;32037;50.820;6.494;2022-09-01T03:56:37;24.00;46.40
46309;DHT22;32037;50.820;6.494;2022-09-01T03:59:13;24.00;46.50
46309;DHT22;32037;50.820;6.494;2022-09-01T04:01:45;23.90;46.40
46309;DHT22;32037;50.820;6.494;2022-09-01T04:04:15;23.90;46.40
46309;DHT22;32037;50.820;6.494;2022-09-01T04:06:44;23.90;46.40
46309;DHT22;32037;50.820;6.494;2022-09-01T04:09:14;23.90;47.80
46309;DHT22;32037;50.820;6.494;2022-09-01T04:11:45;23.90;46.50
46309;DHT22;32037;50.820;6.494;2022-09-01T04:14:15;23.90;46.50
46309;DHT22;32037;50.820;6.494;2022-09-01T04:16:46;23.90;46.50
46309;DHT22;32037;50.820;6.494;2022-09-01T04:19:35;23.90;46.50
46309;DHT22;32037;50.820;6.494;2022-09-01T04:22:07;23.90;46.40
46309;DHT22;32037;50.820;6.494;2022-09-01T04:24:45;23.90;46.40
46309;DHT22;32037;50.820;6.494;2022-09-01T04:27:26;23.90;46.40
46309;DHT22;32037;50.820;6.494;2022-09-01T04:29:55;23.90;46.40
46309;DHT22;32037;50.820;6.494;2022-09-01T04:32:27;23.90;46.40
46309;DHT22;32037;50.820;6.494;2022-09-01T04:34:59;23.90;46.40
46309;DHT22;32037;50.820;6.494;2022-09-01T04:37:29;23.90;46.40
46309;DHT22;32037;50.820;6.494;2022-09-01T04:40:01;23.90;46.40
46309;DHT22;32037;50.820;6.494;2022-09-01T04:42:32;23.80;46.40
46309;DHT22;32037;50.820;6.494;2022-09-01T04:45:03;23.80;46.30
46309;DHT22;32037;50.820;6.494;2022-09-01T04:47:42;23.80;46.30
46309;DHT22;32037;50.820;6.494;2022-09-01T04:50:16;23.80;46.30
46309;DHT22;32037;50.820;6.494;2022-09-01T04:53:05;23.80;46.30
46309;DHT22;32037;50.820;6.494;2022-09-01T04:55:39;23.80;46.40
46309;DHT22;32037;50.820;6.494;2022-09-01T04:58:14;23.80;46.40
46309;DHT22;32037;50.820;6.494;2022-09-01T05:00:45;23.80;46.40
46309;DHT22;32037;50.820;6.494;2022-09-01T05:03:17;23.80;46.40
46309;DHT22;32037;50.820;6.494;2022-09-01T05:05:56;23.80;46.50
46309;DHT22;32037;50.820;6.494;2022-09-01T05:08:31;23.80;46.30
46309;DHT22;32037;50.820;6.494;2022-09-01T05:11:05;23.80;46.40
46309;DHT22;32037;50.820;6.494;2022-09-01T05:13:48;23.80;46.40
46309;DHT22;32037;50.820;6.494;2022-09-01T05:16:18;23.80;46.50
46309;DHT22;32037;50.820;6.494;2022-09-01T05:18:54;23.80;46.40
46309;DHT22;32037;50.820;6.494;2022-09-01T05:21:26;23.70;47.50
46309;DHT22;32037;50.820;6.494;2022-09-01T05:23:58;23.80;46.30
46309;DHT22;32037;50.820;6.494;2022-09-01T05:26:30;23.70;46.40
46309;DHT22;32037;50.820;6.494;2022-09-01T05:29:04;23.70;46.20
46309;DHT22;32037;50.820;6.494;2022-09-01T05:31:36;23.70;46.40
46309;DHT22;32037;50.820;6.494;2022-09-01T05:34:05;23.70;46.30
46309;DHT22;32037;50.820;6.494;2022-09-01T05:36:41;23.70;46.20
46309;DHT22;32037;50.820;6.494;2022-09-01T05:39:10;23.70;46.20
46309;DHT22;32037;50.820;6.494;2022-09-01T05:41:39;23.70;46.20
46309;DHT22;32037;50.820;6.494;2022-09-01T05:44:09;23.70;46.20
46309;DHT22;32037;50.820;6.494;2022-09-01T05:46:38;23.70;46.30
46309;DHT22;32037;50.820;6.494;2022-09-01T05:49:09;23.70;46.30
46309;DHT22;32037;50.820;6.494;2022-09-01T05:51:41;23.70;46.30
46309;DHT22;32037;50.820;6.494;2022-09-01T05:54:12;23.70;46.40
46309;DHT22;32037;50.820;6.494;2022-09-01T05:56:42;23.60;46.30
46309;DHT22;32037;50.820;6.494;2022-09-01T05:59:19;23.60;46.20
46309;DHT22;32037;50.820;6.494;2022-09-01T06:01:56;23.60;46.20
46309;DHT22;32037;50.820;6.494;2022-09-01T06:04:26;23.60;46.30
46309;DHT22;32037;50.820;6.494;2022-09-01T06:07:01;23.60;46.20
46309;DHT22;32037;50.820;6.494;2022-09-01T06:09:42;23.60;46.20
46309;DHT22;32037;50.820;6.494;2022-09-01T06:12:11;23.60;47.50
46309;DHT22;32037;50.820;6.494;2022-09-01T06:14:48;23.60;46.30
46309;DHT22;32037;50.820;6.494;2022-09-01T06:17:18;23.60;46.30
46309;DHT22;32037;50.820;6.494;2022-09-01T06:19:52;23.60;46.40
46309;DHT22;32037;50.820;6.494;2022-09-01T06:22:23;23.60;46.40
46309;DHT22;32037;50.820;6.494;2022-09-01T06:24:52;23.60;46.40
46309;DHT22;32037;50.820;6.494;2022-09-01T06:27:31;23.60;46.30
46309;DHT22;32037;50.820;6.494;2022-09-01T06:30:01;23.60;46.30
46309;DHT22;32037;50.820;6.494;2022-09-01T06:32:51;23.60;46.50
46309;DHT22;32037;50.820;6.494;2022-09-01T06:35:21;23.60;46.40
46309;DHT22;32037;50.820;6.494;2022-09-01T06:37:56;23.60;46.30
46309;DHT22;32037;50.820;6.494;2022-09-01T06:40:43;23.50;46.20
46309;DHT22;32037;50.820;6.494;2022-09-01T06:43:14;23.50;46.00
46309;DHT22;32037;50.820;6.494;2022-09-01T06:46:07;23.50;46.20
46309;DHT22;32037;50.820;6.494;2022-09-01T06:48:36;23.50;46.20
46309;DHT22;32037;50.820;6.494;2022-09-01T06:51:14;23.50;46.20
46309;DHT22;32037;50.820;6.494;2022-09-01T06:53:51;23.50;46.30
46309;DHT22;32037;50.820;6.494;2022-09-01T06:56:26;23.50;46.40
46309;DHT22;32037;50.820;6.494;2022-09-01T06:58:59;23.50;46.30
46309;DHT22;32037;50.820;6.494;2022-09-01T07:01:31;23.50;46.40
46309;DHT22;32037;50.820;6.494;2022-09-01T07:04:01;23.50;46.30
46309;DHT22;32037;50.820;6.494;2022-09-01T07:06:59;23.50;46.30
46309;DHT22;32037;50.820;6.494;2022-09-01T07:10:09;23.50;46.30
46309;DHT22;32037;50.820;6.494;2022-09-01T07:13:08;23.50;46.30
46309;DHT22;32037;50.820;6.494;2022-09-01T07:15:39;23.50;46.30
46309;DHT22;32037;50.820;6.494;2022-09-01T07:18:34;23.60;45.90
46309;DHT22;32037;50.820;6.494;2022-09-01T07:21:05;23.70;45.30
46309;DHT22;32037;50.820;6.494;2022-09-01T07:23:55;23.70;44.30
46309;DHT22;32037;50.820;6.494;2022-09-01T07:27:08;23.70;44.50
46309;DHT22;32037;50.820;6.494;2022-09-01T07:29:37;23.60;44.60
46309;DHT22;32037;50.820;6.494;2022-09-01T07:32:08;23.60;44.70
46309;DHT22;32037;50.820;6.494;2022-09-01T07:34:59;23.60;44.80
46309;DHT22;32037;50.820;6.494;2022-09-01T07:37:29;23.50;46.10
46309;DHT22;32037;50.820;6.494;2022-09-01T07:40:19;23.50;45.00
46309;DHT22;32037;50.820;6.494;2022-09-01T07:43:27;23.50;45.00
46309;DHT22;32037;50.820;6.494;2022-09-01T07:46:18;23.50;45.00
46309;DHT22;32037;50.820;6.494;2022-09-01T07:49:11;23.50;45.00
46309;DHT22;32037;50.820;6.494;2022-09-01T07:52:02;23.50;44.90
46309;DHT22;32037;50.820;6.494;2022-09-01T07:54:31;23.50;45.00
46309;DHT22;32037;50.820;6.494;2022-09-01T07:57:03;23.50;44.90
46309;DHT22;32037;50.820;6.494;2022-09-01T07:59:33;23.50;45.00
46309;DHT22;32037;50.820;6.494;2022-09-01T08:02:10;23.50;44.90
46309;DHT22;32037;50.820;6.494;2022-09-01T08:04:41;23.50;44.90
46309;DHT22;32037;50.820;6.494;2022-09-01T08:07:11;23.50;44.90
46309;DHT22;32037;50.820;6.494;2022-09-01T08:09:42;23.50;44.90
46309;DHT22;32037;50.820;6.494;2022-09-01T08:12:13;23.40;44.60
46309;DHT22;32037;50.820;6.494;2022-09-01T08:14:45;23.40;44.60
46309;DHT22;32037;50.820;6.494;2022-09-01T08:17:40;23.40;44.50
46309;DHT22;32037;50.820;6.494;2022-09-01T08:20:28;23.40;44.70
46309;DHT22;32037;50.820;6.494;2022-09-01T08:23:19;23.40;44.80
46309;DHT22;32037;50.820;6.494;2022-09-01T08:25:52;23.40;46.10
46309;DHT22;32037;50.820;6.494;2022-09-01T08:28:21;23.40;44.80
46309;DHT22;32037;50.820;6.494;2022-09-01T08:30:54;23.40;44.90
46309;DHT22;32037;50.820;6.494;2022-09-01T08:33:24;23.40;44.80
46309;DHT22;32037;50.820;6.494;2022-09-01T08:35:53;23.40;44.90
46309;DHT22;32037;50.820;6.494;2022-09-01T08:38:26;23.40;45.10
46309;DHT22;32037;50.820;6.494;2022-09-01T08:40:57;23.40;45.00
46309;DHT22;32037;50.820;6.494;2022-09-01T08:43:42;23.40;45.00
46309;DHT22;32037;50.820;6.494;2022-09-01T08:46:18;23.40;45.00
46309;DHT22;32037;50.820;6.494;2022-09-01T08:48:51;23.40;45.00
46309;DHT22;32037;50.820;6.494;2022-09-01T08:52:12;23.40;45.10
46309;DHT22;32037;50.820;6.494;2022-09-01T08:54:44;23.40;45.10
46309;DHT22;32037;50.820;6.494;2022-09-01T08:57:17;23.40;45.10
46309;DHT22;32037;50.820;6.494;2022-09-01T09:00:18;23.40;45.10
46309;DHT22;32037;50.820;6.494;2022-09-01T09:02:56;23.40;45.10
46309;DHT22;32037;50.820;6.494;2022-09-01T09:05:32;23.40;45.10
46309;DHT22;32037;50.820;6.494;2022-09-01T09:11:04;23.40;45.20
46309;DHT22;32037;50.820;6.494;2022-09-01T09:13:41;23.40;45.20
46309;DHT22;32037;50.820;6.494;2022-09-01T09:16:17;23.40;45.20
46309;DHT22;32037;50.820;6.494;2022-09-01T09:18:51;23.40;45.10
46309;DHT22;32037;50.820;6.494;2022-09-01T09:21:26;23.40;45.20
46309;DHT22;32037;50.820;6.494;2022-09-01T09:23:59;23.40;45.20
46309;DHT22;32037;50.820;6.494;2022-09-01T09:26:32;23.40;45.20
46309;DHT22;32037;50.820;6.494;2022-09-01T09:29:09;23.40;45.10
46309;DHT22;32037;50.820;6.494;2022-09-01T09:31:39;23.40;45.30
46309;DHT22;32037;50.820;6.494;2022-09-01T09:34:17;23.40;45.20
46309;DHT22;32037;50.820;6.494;2022-09-01T09:36:46;23.40;45.20
46309;DHT22;32037;50.820;6.494;2022-09-01T09:39:21;23.30;45.10
46309;DHT22;32037;50.820;6.494;2022-09-01T09:42:04;23.40;45.30
46309;DHT22;32037;50.820;6.494;2022-09-01T09:44:40;23.30;45.10
46309;DHT22;32037;50.820;6.494;2022-09-01T09:47:35;23.30;45.10
46309;DHT22;32037;50.820;6.494;2022-09-01T09:50:15;23.30;45.10
46309;DHT22;32037;50.820;6.494;2022-09-01T09:52:47;23.30;45.10
46309;DHT22;32037;50.820;6.494;2022-09-01T09:55:21;23.30;45.20
46309;DHT22;32037;50.820;6.494;2022-09-01T09:57:54;23.30;45.20
46309;DHT22;32037;50.820;6.494;2022-09-01T10:00:25;23.30;45.70
46309;DHT22;32037;50.820;6.494;2022-09-01T10:02:59;23.30;45.10
46309;DHT22;32037;50.820;6.494;2022-09-01T10:05:38;23.30;45.10
46309;DHT22;32037;50.820;6.494;2022-09-01T10:08:11;23.30;45.10
46309;DHT22;32037;50.820;6.494;2022-09-01T10:10:48;23.30;45.00
46309;DHT22;32037;50.820;6.494;2022-09-01T10:13:27;23.30;45.10
46309;DHT22;32037;50.820;6.494;2022-09-01T10:16:01;23.30;44.90
46309;DHT22;32037;50.820;6.494;2022-09-01T10:18:35;23.30;45.00
46309;DHT22;32037;50.820;6.494;2022-09-01T10:21:09;23.30;44.50
46309;DHT22;32037;50.820;6.494;2022-09-01T10:23:39;23.30;43.70
46309;DHT22;32037;50.820;6.494;2022-09-01T10:26:14;23.30;43.50
46309;DHT22;32037;50.820;6.494;2022-09-01T10:28:51;23.30;43.40
46309;DHT22;32037;50.820;6.494;2022-09-01T10:31:22;23.40;43.60
46309;DHT22;32037;50.820;6.494;2022-09-01T10:34:02;23.30;43.70
46309;DHT22;32037;50.820;6.494;2022-09-01T10:36:32;23.30;43.70
46309;DHT22;32037;50.820;6.494;2022-09-01T10:39:03;23.30;43.90
46309;DHT22;32037;50.820;6.494;2022-09-01T10:41:59;23.30;43.80
46309;DHT22;32037;50.820;6.494;2022-09-01T10:44:36;23.30;43.80
46309;DHT22;32037;50.820;6.494;2022-09-01T10:47:09;23.30;43.80
46309;DHT22;32037;50.820;6.494;2022-09-01T10:49:56;23.30;43.80
46309;DHT22;32037;50.820;6.494;2022-09-01T10:52:53;23.30;44.00
46309;DHT22;32037;50.820;6.494;2022-09-01T10:55:26;23.40;43.60
46309;DHT22;32037;50.820;6.494;2022-09-01T10:58:19;23.40;43.40
46309;DHT22;32037;50.820;6.494;2022-09-01T11:01:12;23.40;43.50
46309;DHT22;32037;50.820;6.494;2022-09-01T11:04:01;23.40;43.40
46309;DHT22;32037;50.820;6.494;2022-09-01T11:06:53;23.50;43.50
46309;DHT22;32037;50.820;6.494;2022-09-01T11:09:40;23.50;43.60
46309;DHT22;32037;50.820;6.494;2022-09-01T11:12:36;23.50;43.40
46309;DHT22;32037;50.820;6.494;2022-09-01T11:15:34;23.50;43.50
46309;DHT22;32037;50.820;6.494;2022-09-01T11:18:09;23.50;43.50
46309;DHT22;32037;50.820;6.494;2022-09-01T11:20:44;23.60;44.70
46309;DHT22;32037;50.820;6.494;2022-09-01T11:23:21;23.60;43.40
46309;DHT22;32037;50.820;6.494;2022-09-01T11:25:52;23.60;43.50
46309;DHT22;32037;50.820;6.494;2022-09-01T11:28:41;23.60;43.10
46309;DHT22;32037;50.820;6.494;2022-09-01T11:31:25;23.60;43.10
46309;DHT22;32037;50.820;6.494;2022-09-01T11:34:14;23.60;43.10
46309;DHT22;32037;50.820;6.494;2022-09-01T11:37:00;23.60;43.10
46309;DHT22;32037;50.820;6.494;2022-09-01T11:39:38;23.60;43.00
46309;DHT22;32037;50.820;6.494;2022-09-01T11:42:11;23.60;43.20
46309;DHT22;32037;50.820;6.494;2022-09-01T11:44:50;23.60;43.20
46309;DHT22;32037;50.820;6.494;2022-09-01T11:47:22;23.60;43.20
46309;DHT22;32037;50.820;6.494;2022-09-01T11:49:58;23.60;43.20
46309;DHT22;32037;50.820;6.494;2022-09-01T11:52:30;23.60;43.20
46309;DHT22;32037;50.820;6.494;2022-09-01T11:54:59;23.60;43.20
46309;DHT22;32037;50.820;6.494;2022-09-01T11:57:30;23.60;43.20
46309;DHT22;32037;50.820;6.494;2022-09-01T12:00:02;23.60;43.20
46309;DHT22;32037;50.820;6.494;2022-09-01T12:02:44;23.60;43.20
46309;DHT22;32037;50.820;6.494;2022-09-01T12:05:28;23.70;43.20
46309;DHT22;32037;50.820;6.494;2022-09-01T12:07:58;23.70;43.20
46309;DHT22;32037;50.820;6.494;2022-09-01T12:10:31;23.70;43.20
46309;DHT22;32037;50.820;6.494;2022-09-01T12:13:02;23.70;43.20
46309;DHT22;32037;50.820;6.494;2022-09-01T12:15:31;23.70;43.10
46309;DHT22;32037;50.820;6.494;2022-09-01T12:18:20;23.70;43.20
46309;DHT22;32037;50.820;6.494;2022-09-01T12:20:51;23.70;43.10
46309;DHT22;32037;50.820;6.494;2022-09-01T12:23:24;23.70;43.00
46309;DHT22;32037;50.820;6.494;2022-09-01T12:25:54;23.70;43.10
46309;DHT22;32037;50.820;6.494;2022-09-01T12:28:25;23.70;43.20
46309;DHT22;32037;50.820;6.494;2022-09-01T12:31:00;23.70;43.10
46309;DHT22;32037;50.820;6.494;2022-09-01T12:33:34;23.70;42.80
46309;DHT22;32037;50.820;6.494;2022-09-01T12:36:22;23.70;42.90
46309;DHT22;32037;50.820;6.494;2022-09-01T12:38:54;23.70;43.20
46309;DHT22;32037;50.820;6.494;2022-09-01T12:41:25;23.70;43.20
46309;DHT22;32037;50.820;6.494;2022-09-01T12:43:55;23.70;43.10
46309;DHT22;32037;50.820;6.494;2022-09-01T12:46:40;23.70;43.10
46309;DHT22;32037;50.820;6.494;2022-09-01T12:49:17;23.70;43.00
46309;DHT22;32037;50.820;6.494;2022-09-01T12:51:47;23.70;42.90
46309;DHT22;32037;50.820;6.494;2022-09-01T12:54:23;23.80;42.90
46309;DHT22;32037;50.820;6.494;2022-09-01T12:56:52;23.70;42.90
46309;DHT22;32037;50.820;6.494;2022-09-01T12:59:23;23.80;43.10
46309;DHT22;32037;50.820;6.494;2022-09-01T13:02:25;23.80;43.00
46309;DHT22;32037;50.820;6.494;2022-09-01T13:04:54;23.80;42.80
46309;DHT22;32037;50.820;6.494;2022-09-01T13:07:45;23.80;42.90
46309;DHT22;32037;50.820;6.494;2022-09-01T13:10:14;23.80;43.00
46309;DHT22;32037;50.820;6.494;2022-09-01T13:12:43;23.80;43.10
46309;DHT22;32037;50.820;6.494;2022-09-01T13:15:12;23.80;43.00
46309;DHT22;32037;50.820;6.494;2022-09-01T13:17:41;23.80;42.90
46309;DHT22;32037;50.820;6.494;2022-09-01T13:20:09;23.80;42.90
46309;DHT22;32037;50.820;6.494;2022-09-01T13:22:39;23.80;43.00
46309;DHT22;32037;50.820;6.494;2022-09-01T13:25:10;23.80;42.90
46309;DHT22;32037;50.820;6.494;2022-09-01T13:27:39;23.80;42.80
46309;DHT22;32037;50.820;6.494;2022-09-01T13:30:12;23.80;42.70
46309;DHT22;32037;50.820;6.494;2022-09-01T13:32:42;23.80;42.70
46309;DHT22;32037;50.820;6.494;2022-09-01T13:35:31;23.80;42.60
46309;DHT22;32037;50.820;6.494;2022-09-01T13:38:00;23.80;42.80
46309;DHT22;32037;50.820;6.494;2022-09-01T13:40:30;23.80;42.90
46309;DHT22;32037;50.820;6.494;2022-09-01T13:42:58;23.80;42.70
46309;DHT22;32037;50.820;6.494;2022-09-01T13:45:28;23.80;42.70
46309;DHT22;32037;50.820;6.494;2022-09-01T13:47:56;23.80;42.90
46309;DHT22;32037;50.820;6.494;2022-09-01T13:50:47;23.80;42.80
46309;DHT22;32037;50.820;6.494;2022-09-01T13:53:36;23.80;42.70
46309;DHT22;32037;50.820;6.494;2022-09-01T13:56:06;23.80;42.70
46309;DHT22;32037;50.820;6.494;2022-09-01T13:58:34;23.80;42.50
46309;DHT22;32037;50.820;6.494;2022-09-01T14:01:03;23.90;42.70
46309;DHT22;32037;50.820;6.494;2022-09-01T14:03:33;23.90;42.70
46309;DHT22;32037;50.820;6.494;2022-09-01T14:06:02;23.90;42.70
46309;DHT22;32037;50.820;6.494;2022-09-01T14:08:30;23.90;42.70
46309;DHT22;32037;50.820;6.494;2022-09-01T14:10:59;23.90;42.60
46309;DHT22;32037;50.820;6.494;2022-09-01T14:13:30;23.90;42.50
46309;DHT22;32037;50.820;6.494;2022-09-01T14:15:59;23.90;42.40
46309;DHT22;32037;50.820;6.494;2022-09-01T14:18:27;23.90;42.40
46309;DHT22;32037;50.820;6.494;2022-09-01T14:20:59;23.90;42.30
46309;DHT22;32037;50.820;6.494;2022-09-01T14:23:28;23.90;42.30
46309;DHT22;32037;50.820;6.494;2022-09-01T14:25:56;23.90;42.30
46309;DHT22;32037;50.820;6.494;2022-09-01T14:28:25;23.90;43.50
46309;DHT22;32037;50.820;6.494;2022-09-01T14:30:55;23.90;42.30
46309;DHT22;32037;50.820;6.494;2022-09-01T14:33:22;23.90;42.30
46309;DHT22;32037;50.820;6.494;2022-09-01T14:35:53;23.90;42.40
46309;DHT22;32037;50.820;6.494;2022-09-01T14:38:21;23.90;42.40
46309;DHT22;32037;50.820;6.494;2022-09-01T14:40:50;23.90;42.40
46309;DHT22;32037;50.820;6.494;2022-09-01T14:43:19;23.90;42.40
46309;DHT22;32037;50.820;6.494;2022-09-01T14:45:48;24.00;42.40
46309;DHT22;32037;50.820;6.494;2022-09-01T14:48:19;23.90;42.30
46309;DHT22;32037;50.820;6.494;2022-09-01T14:50:48;24.00;42.20
46309;DHT22;32037;50.820;6.494;2022-09-01T14:53:17;24.00;42.30
46309;DHT22;32037;50.820;6.494;2022-09-01T14:55:46;24.00;42.10
46309;DHT22;32037;50.820;6.494;2022-09-01T14:58:18;24.00;42.10
46309;DHT22;32037;50.820;6.494;2022-09-01T15:00:47;24.00;42.40
46309;DHT22;32037;50.820;6.494;2022-09-01T15:03:16;24.00;42.10
46309;DHT22;32037;50.820;6.494;2022-09-01T15:05:50;24.00;42.10
46309;DHT22;32037;50.820;6.494;2022-09-01T15:08:19;24.00;42.10
46309;DHT22;32037;50.820;6.494;2022-09-01T15:10:49;24.00;42.10
46309;DHT22;32037;50.820;6.494;2022-09-01T15:13:17;24.00;42.10
46309;DHT22;32037;50.820;6.494;2022-09-01T15:15:46;24.00;42.10
46309;DHT22;32037;50.820;6.494;2022-09-01T15:18:14;24.00;42.20
46309;DHT22;32037;50.820;6.494;2022-09-01T15:20:43;24.10;42.30
46309;DHT22;32037;50.820;6.494;2022-09-01T15:23:17;24.00;42.00
46309;DHT22;32037;50.820;6.494;2022-09-01T15:25:47;24.10;42.20
46309;DHT22;32037;50.820;6.494;2022-09-01T15:28:15;24.10;42.30
46309;DHT22;32037;50.820;6.494;2022-09-01T15:30:45;24.10;42.30
46309;DHT22;32037;50.820;6.494;2022-09-01T15:33:14;24.10;42.50
46309;DHT22;32037;50.820;6.494;2022-09-01T15:35:43;24.10;42.20
46309;DHT22;32037;50.820;6.494;2022-09-01T15:38:17;24.10;42.30
46309;DHT22;32037;50.820;6.494;2022-09-01T15:40:46;24.10;42.30
46309;DHT22;32037;50.820;6.494;2022-09-01T15:43:25;24.10;42.20
46309;DHT22;32037;50.820;6.494;2022-09-01T15:45:54;24.10;42.10
46309;DHT22;32037;50.820;6.494;2022-09-01T15:48:25;24.10;41.80
46309;DHT22;32037;50.820;6.494;2022-09-01T15:51:06;24.10;40.00
46309;DHT22;32037;50.820;6.494;2022-09-01T15:53:38;24.10;40.40
46309;DHT22;32037;50.820;6.494;2022-09-01T15:56:07;24.10;40.70
46309;DHT22;32037;50.820;6.494;2022-09-01T15:58:35;24.10;40.80
46309;DHT22;32037;50.820;6.494;2022-09-01T16:01:24;24.10;40.80
46309;DHT22;32037;50.820;6.494;2022-09-01T16:03:53;24.10;40.90
46309;DHT22;32037;50.820;6.494;2022-09-01T16:06:22;24.10;40.80
46309;DHT22;32037;50.820;6.494;2022-09-01T16:08:53;24.20;40.90
46309;DHT22;32037;50.820;6.494;2022-09-01T16:11:23;24.20;41.10
46309;DHT22;32037;50.820;6.494;2022-09-01T16:13:52;24.20;41.00
46309;DHT22;32037;50.820;6.494;2022-09-01T16:16:40;24.10;41.00
46309;DHT22;32037;50.820;6.494;2022-09-01T16:19:36;24.20;41.10